createdAt,value
2023-02-02T00:01:23.212Z,55.60
2023-02-02T00:03:50.839Z,55.00
2023-02-02T00:06:22.105Z,54.90
2023-02-02T00:08:49.207Z,55.00
2023-02-02T00:11:16.504Z,54.80
2023-02-02T00:13:43.470Z,54.90
2023-02-02T00:16:28.517Z,54.90
2023-02-02T00:18:56.982Z,54.80
2023-02-02T00:21:24.104Z,54.90
2023-02-02T00:23:51.273Z,54.80
2023-02-02T00:26:18.952Z,54.80
2023-02-02T00:28:45.787Z,54.80
2023-02-02T00:31:12.406Z,54.80
2023-02-02T00:33:39.195Z,54.80
2023-02-02T00:36:06.199Z,54.80
2023-02-02T00:38:34.468Z,54.80
2023-02-02T00:41:02.214Z,54.70
2023-02-02T00:43:28.907Z,54.70
2023-02-02T00:45:55.623Z,54.20
2023-02-02T00:48:22.495Z,54.70
2023-02-02T00:50:49.072Z,54.70
2023-02-02T00:53:15.655Z,54.60
2023-02-02T00:55:42.241Z,54.70
2023-02-02T00:58:08.853Z,54.70
2023-02-02T01:00:35.471Z,54.70
2023-02-02T01:03:04.373Z,54.70
2023-02-02T01:05:31.811Z,54.70
2023-02-02T01:07:58.534Z,54.70
2023-02-02T01:10:25.163Z,54.60
2023-02-02T01:12:52.050Z,54.70
2023-02-02T01:15:18.853Z,54.60
2023-02-02T01:17:45.481Z,54.60
2023-02-02T01:20:18.313Z,54.60
2023-02-02T01:22:45.309Z,54.50
2023-02-02T01:25:11.946Z,54.50
2023-02-02T01:27:38.538Z,54.40
2023-02-02T01:30:05.658Z,54.40
2023-02-02T01:32:33.096Z,53.90
2023-02-02T01:34:59.727Z,54.30
2023-02-02T01:37:26.373Z,54.30
2023-02-02T01:39:53.163Z,54.30
2023-02-02T01:42:24.070Z,54.30
2023-02-02T01:45:21.771Z,54.30
2023-02-02T01:47:56.480Z,54.30
2023-02-02T01:50:31.176Z,54.30
2023-02-02T01:53:00.479Z,54.30
2023-02-02T01:55:29.244Z,54.20
2023-02-02T01:58:02.115Z,54.30
2023-02-02T02:00:29.092Z,54.30
2023-02-02T02:03:00.466Z,54.20
2023-02-02T02:05:38.158Z,54.20
2023-02-02T02:08:24.320Z,54.20
2023-02-02T02:10:51.205Z,54.20
2023-02-02T02:13:20.548Z,54.20
2023-02-02T02:16:19.853Z,54.20
2023-02-02T02:19:11.097Z,54.20
2023-02-02T02:22:15.631Z,54.20
2023-02-02T02:25:22.939Z,54.20
2023-02-02T02:28:15.776Z,54.10
2023-02-02T02:31:25.610Z,54.20
2023-02-02T02:34:04.575Z,54.30
2023-02-02T02:36:40.389Z,54.20
2023-02-02T02:39:36.467Z,54.20
2023-02-02T02:42:11.465Z,54.20
2023-02-02T02:44:38.094Z,54.20
2023-02-02T02:47:04.920Z,54.20
2023-02-02T02:49:31.540Z,54.20
2023-02-02T02:51:58.144Z,54.10
2023-02-02T02:54:34.848Z,54.10
2023-02-02T02:57:13.362Z,54.20
2023-02-02T02:59:57.126Z,54.30
2023-02-02T03:02:24.277Z,54.40
2023-02-02T03:05:10.922Z,54.40
2023-02-02T03:07:43.193Z,54.60
2023-02-02T03:10:12.988Z,54.60
2023-02-02T03:12:51.281Z,54.60
2023-02-02T03:15:19.445Z,54.60
2023-02-02T03:17:49.125Z,54.70
2023-02-02T03:20:16.571Z,54.80
2023-02-02T03:22:43.427Z,54.80
2023-02-02T03:25:13.253Z,54.90
2023-02-02T03:27:40.363Z,55.00
2023-02-02T03:30:11.017Z,55.20
2023-02-02T03:32:38.544Z,55.10
2023-02-02T03:35:05.673Z,55.30
2023-02-02T03:37:32.293Z,55.30
2023-02-02T03:39:58.953Z,55.40
2023-02-02T03:42:25.543Z,55.60
2023-02-02T03:44:52.190Z,55.60
2023-02-02T03:47:18.796Z,55.80
2023-02-02T03:49:45.439Z,55.80
2023-02-02T03:52:12.211Z,55.90
2023-02-02T03:54:38.892Z,55.90
2023-02-02T03:57:05.613Z,56.00
2023-02-02T03:59:32.343Z,56.10
2023-02-02T04:01:59.103Z,56.20
2023-02-02T04:04:25.810Z,56.20
2023-02-02T04:06:52.421Z,56.30
2023-02-02T04:09:19.128Z,56.30
2023-02-02T04:11:45.786Z,56.40
2023-02-02T04:14:12.505Z,56.00
2023-02-02T04:16:39.167Z,56.50
2023-02-02T04:19:05.869Z,56.50
2023-02-02T04:21:32.502Z,56.60
2023-02-02T04:23:59.208Z,56.60
2023-02-02T04:26:26.179Z,56.80
2023-02-02T04:28:53.783Z,56.70
2023-02-02T04:31:20.480Z,56.80
2023-02-02T04:33:47.151Z,55.80
2023-02-02T04:36:13.891Z,55.80
2023-02-02T04:38:40.656Z,56.10
2023-02-02T04:41:13.723Z,56.30
2023-02-02T04:43:40.592Z,56.10
2023-02-02T04:46:07.291Z,55.90
2023-02-02T04:48:33.954Z,56.00
2023-02-02T04:51:05.317Z,55.90
2023-02-02T04:53:32.765Z,55.60
2023-02-02T04:56:06.242Z,56.10
2023-02-02T04:58:32.997Z,55.70
2023-02-02T05:00:59.713Z,54.60
2023-02-02T05:03:26.370Z,55.10
2023-02-02T05:06:01.928Z,55.30
2023-02-02T05:08:29.000Z,55.20
2023-02-02T05:10:55.610Z,55.30
2023-02-02T05:13:22.441Z,55.40
2023-02-02T05:15:49.201Z,55.30
2023-02-02T05:18:15.866Z,55.80
2023-02-02T05:20:42.497Z,55.80
2023-02-02T05:23:09.101Z,56.00
2023-02-02T05:25:35.723Z,56.00
2023-02-02T05:28:02.358Z,56.00
2023-02-02T05:30:29.008Z,56.10
2023-02-02T05:32:55.587Z,56.00
2023-02-02T05:35:22.416Z,55.90
2023-02-02T05:37:49.092Z,55.90
2023-02-02T05:40:15.848Z,56.00
2023-02-02T05:42:42.473Z,56.00
2023-02-02T05:45:09.621Z,55.40
2023-02-02T05:47:36.362Z,55.90
2023-02-02T05:50:03.179Z,55.90
2023-02-02T05:52:34.607Z,55.80
2023-02-02T05:55:01.635Z,55.80
2023-02-02T05:57:28.305Z,55.20
2023-02-02T05:59:55.091Z,56.00
2023-02-02T06:02:21.697Z,55.80
2023-02-02T06:04:48.334Z,55.70
2023-02-02T06:07:14.920Z,55.70
2023-02-02T06:09:41.578Z,55.50
2023-02-02T06:12:08.647Z,55.40
2023-02-02T06:14:35.253Z,54.90
2023-02-02T06:17:01.908Z,55.40
2023-02-02T06:19:28.521Z,55.30
2023-02-02T06:21:55.152Z,55.30
2023-02-02T06:24:21.791Z,55.30
2023-02-02T06:26:48.497Z,54.70
2023-02-02T06:29:15.177Z,55.30
2023-02-02T06:31:42.304Z,55.20
2023-02-02T06:34:11.160Z,55.10
2023-02-02T06:36:37.778Z,55.20
2023-02-02T06:39:05.801Z,55.10
2023-02-02T06:41:32.458Z,55.20
2023-02-02T06:43:59.127Z,55.10
2023-02-02T06:46:25.945Z,55.10
2023-02-02T06:48:52.571Z,55.10
2023-02-02T06:51:19.781Z,55.10
2023-02-02T06:53:49.992Z,55.20
2023-02-02T06:56:17.093Z,55.10
2023-02-02T06:58:43.727Z,55.10
2023-02-02T07:01:13.086Z,55.10
2023-02-02T07:03:40.057Z,55.10
2023-02-02T07:06:18.720Z,54.60
2023-02-02T07:08:57.536Z,55.20
2023-02-02T07:11:29.707Z,55.30
2023-02-02T07:13:56.425Z,55.20
2023-02-02T07:16:23.174Z,55.20
2023-02-02T07:18:49.829Z,55.30
2023-02-02T07:21:22.229Z,55.30
2023-02-02T07:23:49.451Z,55.40
2023-02-02T07:26:17.599Z,55.40
2023-02-02T07:28:44.681Z,55.40
2023-02-02T07:31:20.134Z,55.40
2023-02-02T07:33:48.195Z,55.60
2023-02-02T07:36:17.893Z,55.50
2023-02-02T07:38:48.656Z,55.50
2023-02-02T07:41:15.766Z,55.60
2023-02-02T07:43:42.675Z,55.50
2023-02-02T07:46:12.661Z,55.60
2023-02-02T07:48:40.596Z,55.60
2023-02-02T07:51:11.271Z,55.60
2023-02-02T07:53:38.469Z,55.60
2023-02-02T07:56:14.030Z,55.70
2023-02-02T07:58:41.103Z,55.70
2023-02-02T08:01:10.464Z,55.70
2023-02-02T08:03:37.853Z,55.70
2023-02-02T08:06:23.556Z,55.60
2023-02-02T08:08:50.843Z,55.70
2023-02-02T08:11:19.961Z,55.60
2023-02-02T08:13:50.679Z,55.70
2023-02-02T08:16:17.663Z,55.70
2023-02-02T08:18:44.591Z,55.70
2023-02-02T08:21:12.001Z,55.60
2023-02-02T08:23:40.980Z,55.60
2023-02-02T08:26:17.211Z,55.80
2023-02-02T08:28:45.790Z,55.60
2023-02-02T08:31:21.974Z,55.60
2023-02-02T08:33:49.768Z,55.60
2023-02-02T08:36:21.379Z,55.70
2023-02-02T08:38:49.728Z,55.70
2023-02-02T08:41:19.138Z,55.70
2023-02-02T08:43:45.956Z,55.70
2023-02-02T08:46:15.045Z,55.70
2023-02-02T08:48:42.097Z,55.70
2023-02-02T08:51:10.946Z,55.70
2023-02-02T08:53:37.853Z,55.70
2023-02-02T08:56:13.845Z,55.70
2023-02-02T08:58:45.067Z,55.70
2023-02-02T09:01:15.014Z,55.60
2023-02-02T09:03:42.304Z,55.70
2023-02-02T09:06:12.381Z,55.70
2023-02-02T09:08:39.173Z,55.70
2023-02-02T09:11:19.379Z,55.60
2023-02-02T09:13:51.300Z,55.70
2023-02-02T09:16:18.921Z,55.70
2023-02-02T09:18:46.215Z,55.70
2023-02-02T09:21:15.548Z,55.70
2023-02-02T09:23:46.809Z,55.70
2023-02-02T09:26:17.740Z,55.70
2023-02-02T09:29:02.596Z,55.70
2023-02-02T09:31:32.721Z,55.70
2023-02-02T09:34:03.992Z,55.70
2023-02-02T09:36:31.369Z,55.70
2023-02-02T09:38:58.365Z,55.70
2023-02-02T09:41:37.278Z,55.70
2023-02-02T09:44:26.444Z,55.70
2023-02-02T09:47:23.907Z,55.70
2023-02-02T09:50:08.932Z,55.70
2023-02-02T09:52:46.313Z,55.70
2023-02-02T09:55:28.033Z,55.70
2023-02-02T09:58:35.830Z,55.70
2023-02-02T10:01:30.592Z,55.70
2023-02-02T10:04:03.282Z,55.70
2023-02-02T10:06:40.041Z,55.70
2023-02-02T10:09:30.503Z,55.70
2023-02-02T10:12:19.372Z,55.70
2023-02-02T10:15:12.989Z,56.30
2023-02-02T10:17:54.055Z,55.70
2023-02-02T10:20:37.383Z,55.70
2023-02-02T10:23:30.114Z,55.10
2023-02-02T10:26:08.515Z,55.70
2023-02-02T10:29:16.175Z,55.70
2023-02-02T10:32:10.829Z,55.70
2023-02-02T10:35:07.033Z,55.30
2023-02-02T10:37:54.131Z,55.70
2023-02-02T10:40:42.132Z,55.70
2023-02-02T10:43:45.280Z,55.70
2023-02-02T10:46:19.994Z,55.70
2023-02-02T10:48:48.599Z,55.70
2023-02-02T10:51:28.029Z,55.70
2023-02-02T10:53:59.412Z,55.70
2023-02-02T10:56:37.447Z,55.70
2023-02-02T10:59:19.301Z,55.70
2023-02-02T11:01:46.044Z,55.70
2023-02-02T11:04:31.146Z,55.70
2023-02-02T11:06:59.843Z,55.70
2023-02-02T11:09:31.557Z,55.70
2023-02-02T11:12:06.498Z,55.70
2023-02-02T11:15:05.221Z,55.70
2023-02-02T11:17:33.253Z,55.70
2023-02-02T11:20:00.187Z,55.70
2023-02-02T11:22:37.068Z,55.80
2023-02-02T11:25:29.164Z,55.80
2023-02-02T11:27:55.794Z,55.70
2023-02-02T11:30:35.839Z,55.70
2023-02-02T11:33:36.520Z,55.70
2023-02-02T11:36:06.670Z,55.70
2023-02-02T11:38:33.502Z,55.70
2023-02-02T11:41:08.029Z,55.70
2023-02-02T11:43:41.989Z,55.70
2023-02-02T11:46:18.816Z,55.20
2023-02-02T11:48:58.461Z,55.70
2023-02-02T11:51:27.156Z,55.70
2023-02-02T11:54:25.378Z,55.10
2023-02-02T11:56:55.202Z,55.60
2023-02-02T11:59:41.108Z,55.60
2023-02-02T12:02:19.960Z,55.60
2023-02-02T12:04:48.963Z,55.10
2023-02-02T12:07:31.659Z,55.60
2023-02-02T12:10:01.409Z,55.50
2023-02-02T12:13:05.245Z,55.60
2023-02-02T12:15:59.621Z,55.50
2023-02-02T12:18:44.994Z,55.50
2023-02-02T12:21:39.584Z,55.50
2023-02-02T12:24:29.023Z,55.50
2023-02-02T12:27:01.456Z,55.60
2023-02-02T12:29:45.660Z,55.50
2023-02-02T12:32:50.178Z,55.50
2023-02-02T12:35:30.934Z,55.50
2023-02-02T12:38:21.937Z,55.50
2023-02-02T12:41:17.656Z,55.50
2023-02-02T12:43:47.793Z,55.50
2023-02-02T12:46:37.030Z,55.50
2023-02-02T12:49:27.811Z,55.50
2023-02-02T12:52:00.194Z,55.50
2023-02-02T12:54:54.526Z,55.50
2023-02-02T12:57:53.283Z,55.50
2023-02-02T13:00:45.824Z,55.50
2023-02-02T13:03:18.429Z,55.50
2023-02-02T13:06:22.729Z,55.50
2023-02-02T13:09:01.799Z,55.50
2023-02-02T13:11:41.293Z,55.60
2023-02-02T13:14:32.549Z,55.10
2023-02-02T13:17:19.279Z,55.60
2023-02-02T13:19:52.865Z,55.60
2023-02-02T13:22:29.859Z,55.70
2023-02-02T13:25:00.889Z,55.70
2023-02-02T13:27:30.512Z,55.70
2023-02-02T13:30:03.252Z,55.80
2023-02-02T13:32:50.796Z,56.30
2023-02-02T13:35:20.502Z,55.20
2023-02-02T13:38:15.803Z,55.80
2023-02-02T13:40:43.998Z,55.70
2023-02-02T13:43:22.856Z,55.80
2023-02-02T13:45:59.891Z,55.30
2023-02-02T13:49:00.187Z,55.80
2023-02-02T13:51:50.292Z,55.90
2023-02-02T13:54:38.262Z,55.80
2023-02-02T13:57:44.150Z,55.80
2023-02-02T14:00:22.238Z,55.80
2023-02-02T14:02:58.387Z,55.90
2023-02-02T14:05:29.808Z,55.90
2023-02-02T14:08:07.194Z,55.90
2023-02-02T14:10:39.812Z,55.90
2023-02-02T14:13:32.176Z,55.90
2023-02-02T14:16:01.981Z,55.90
2023-02-02T14:18:58.953Z,55.90
2023-02-02T14:21:31.417Z,56.00
2023-02-02T14:24:03.012Z,55.90
2023-02-02T14:26:46.524Z,55.90
2023-02-02T14:29:46.820Z,55.90
2023-02-02T14:32:28.699Z,56.00
2023-02-02T14:38:15.090Z,55.90
2023-02-02T14:40:57.935Z,56.00
2023-02-02T14:43:44.726Z,55.90
2023-02-02T14:46:14.599Z,55.90
2023-02-02T14:48:44.174Z,56.00
2023-02-02T14:51:18.245Z,55.90
2023-02-02T14:53:50.931Z,56.00
2023-02-02T14:56:18.640Z,56.00
2023-02-02T14:58:51.146Z,56.00
2023-02-02T15:01:17.799Z,56.00
2023-02-02T15:03:49.619Z,56.00
2023-02-02T15:06:31.473Z,56.00
2023-02-02T15:09:19.490Z,56.60
2023-02-02T15:12:08.690Z,56.00
2023-02-02T15:15:06.237Z,56.00
2023-02-02T15:17:42.013Z,56.00
2023-02-02T15:20:21.000Z,56.10
2023-02-02T15:22:47.728Z,56.00
2023-02-02T15:25:25.731Z,56.10
2023-02-02T15:28:00.930Z,56.20
2023-02-02T15:30:33.501Z,56.20
2023-02-02T15:33:07.154Z,56.30
2023-02-02T15:35:37.200Z,56.40
2023-02-02T15:38:11.964Z,56.50
2023-02-02T15:40:39.148Z,56.60
2023-02-02T15:43:09.204Z,56.70
2023-02-02T15:45:50.779Z,56.90
2023-02-02T15:48:22.415Z,56.80
2023-02-02T15:50:54.594Z,56.80
2023-02-02T15:53:43.283Z,57.00
2023-02-02T15:56:24.767Z,57.10
2023-02-02T15:58:54.370Z,57.70
2023-02-02T16:01:23.833Z,57.10
2023-02-02T16:03:58.168Z,57.60
2023-02-02T16:06:25.383Z,57.50
2023-02-02T16:08:52.121Z,57.60
2023-02-02T16:11:21.343Z,57.60
2023-02-02T16:14:01.697Z,57.60
2023-02-02T16:16:29.535Z,57.60
2023-02-02T16:19:08.541Z,57.60
2023-02-02T16:22:06.022Z,57.60
2023-02-02T16:24:40.283Z,57.60
2023-02-02T16:27:12.065Z,57.60
2023-02-02T16:29:40.519Z,57.60
2023-02-02T16:32:24.636Z,57.60
2023-02-02T16:34:51.433Z,57.20
2023-02-02T16:37:38.008Z,57.70
2023-02-02T16:40:27.873Z,57.30
2023-02-02T16:43:18.431Z,57.40
2023-02-02T16:45:54.457Z,57.30
2023-02-02T16:48:34.422Z,57.30
2023-02-02T16:51:03.999Z,57.50
2023-02-02T16:53:30.982Z,57.50
2023-02-02T16:55:57.959Z,57.40
2023-02-02T16:58:26.208Z,57.60
2023-02-02T17:01:14.067Z,57.60
2023-02-02T17:03:51.614Z,57.60
2023-02-02T17:06:29.561Z,58.30
2023-02-02T17:09:14.890Z,58.20
2023-02-02T17:11:55.794Z,57.80
2023-02-02T17:14:33.528Z,57.70
2023-02-02T17:17:02.163Z,57.70
2023-02-02T17:19:30.060Z,57.70
2023-02-02T17:21:59.497Z,58.00
2023-02-02T17:24:26.798Z,57.70
2023-02-02T17:26:53.880Z,57.90
2023-02-02T17:29:21.423Z,58.00
2023-02-02T17:31:48.192Z,58.20
2023-02-02T17:34:15.147Z,58.60
2023-02-02T17:36:42.908Z,59.10
2023-02-02T17:39:11.674Z,58.80
2023-02-02T17:41:39.128Z,58.60
2023-02-02T17:44:06.824Z,58.00
2023-02-02T17:46:34.944Z,57.80
2023-02-02T17:49:01.653Z,57.70
2023-02-02T17:51:30.224Z,58.40
2023-02-02T17:54:00.275Z,57.80
2023-02-02T17:56:27.365Z,57.20
2023-02-02T17:58:53.989Z,57.70
2023-02-02T18:01:20.698Z,57.60
2023-02-02T18:03:49.260Z,57.70
2023-02-02T18:06:16.670Z,57.60
2023-02-02T18:08:43.267Z,57.60
2023-02-02T18:11:12.335Z,57.60
2023-02-02T18:13:40.295Z,57.60
2023-02-02T18:16:07.691Z,57.10
2023-02-02T18:18:34.608Z,57.60
2023-02-02T18:21:01.433Z,57.60
2023-02-02T18:23:28.169Z,57.60
2023-02-02T18:25:54.816Z,57.60
2023-02-02T18:28:21.397Z,57.60
2023-02-02T18:30:48.141Z,57.60
2023-02-02T18:33:19.430Z,57.60
2023-02-02T18:35:47.517Z,57.60
2023-02-02T18:38:14.923Z,57.50
2023-02-02T18:40:41.910Z,57.50
2023-02-02T18:43:08.893Z,57.50
2023-02-02T18:45:36.390Z,57.50
2023-02-02T18:48:03.347Z,57.60
2023-02-02T18:50:30.305Z,57.60
2023-02-02T18:52:57.058Z,57.60
2023-02-02T18:55:24.112Z,57.60
2023-02-02T18:57:50.954Z,57.50
2023-02-02T19:00:18.008Z,57.60
2023-02-02T19:02:44.804Z,57.60
2023-02-02T19:05:30.027Z,57.50
2023-02-02T19:07:56.992Z,57.60
2023-02-02T19:10:25.256Z,57.60
2023-02-02T19:13:23.785Z,57.50
2023-02-02T19:15:50.871Z,57.50
2023-02-02T19:18:20.118Z,57.50
2023-02-02T19:20:49.130Z,57.50
2023-02-02T19:23:20.224Z,57.60
2023-02-02T19:25:51.444Z,57.00
2023-02-02T19:28:26.457Z,57.60
2023-02-02T19:30:55.339Z,57.50
2023-02-02T19:33:34.184Z,57.50
2023-02-02T19:36:00.843Z,57.50
2023-02-02T19:38:29.544Z,58.20
2023-02-02T19:40:56.196Z,57.50
2023-02-02T19:43:28.447Z,57.50
2023-02-02T19:45:58.419Z,57.00
2023-02-02T19:48:27.860Z,57.60
2023-02-02T19:50:55.755Z,57.80
2023-02-02T19:53:35.126Z,57.50
2023-02-02T19:56:02.256Z,57.50
2023-02-02T19:58:34.865Z,57.50
2023-02-02T20:01:08.342Z,57.50
2023-02-02T20:03:42.830Z,57.50
2023-02-02T20:06:30.930Z,57.50
2023-02-02T20:09:00.496Z,57.50
2023-02-02T20:11:41.315Z,57.50
2023-02-02T20:14:19.877Z,57.50
2023-02-02T20:16:52.305Z,57.00
2023-02-02T20:19:24.517Z,57.50
2023-02-02T20:21:53.215Z,57.50
2023-02-02T20:24:28.102Z,57.00
2023-02-02T20:26:58.419Z,57.50
2023-02-02T20:29:32.874Z,57.50
2023-02-02T20:31:59.661Z,58.10
2023-02-02T20:34:29.582Z,57.40
2023-02-02T20:37:01.420Z,57.50
2023-02-02T20:39:41.943Z,57.40
2023-02-02T20:42:08.749Z,57.40
2023-02-02T20:44:36.067Z,57.30
2023-02-02T20:47:03.142Z,57.40
2023-02-02T20:49:31.538Z,57.40
2023-02-02T20:52:01.654Z,57.40
2023-02-02T20:54:28.966Z,57.40
2023-02-02T20:56:55.733Z,57.40
2023-02-02T20:59:22.533Z,57.40
2023-02-02T21:01:52.881Z,57.40
2023-02-02T21:04:21.308Z,57.40
2023-02-02T21:06:49.115Z,57.40
2023-02-02T21:09:17.051Z,57.40
2023-02-02T21:11:43.856Z,57.50
2023-02-02T21:14:13.667Z,57.50
2023-02-02T21:16:40.289Z,58.20
2023-02-02T21:19:06.961Z,57.50
2023-02-02T21:21:33.643Z,57.50
2023-02-02T21:24:00.956Z,57.50
2023-02-02T21:26:30.915Z,57.50
2023-02-02T21:28:58.484Z,57.50
2023-02-02T21:31:26.402Z,57.50
2023-02-02T21:33:53.712Z,57.50
2023-02-02T21:36:35.853Z,57.50
2023-02-02T21:39:22.675Z,57.50
2023-02-02T21:41:50.729Z,57.50
2023-02-02T21:44:19.892Z,57.50
2023-02-02T21:46:50.141Z,57.50
2023-02-02T21:49:24.430Z,57.50
2023-02-02T21:51:52.141Z,57.50
2023-02-02T21:54:24.305Z,57.40
2023-02-02T21:56:51.830Z,57.40
2023-02-02T21:59:33.278Z,57.30
2023-02-02T22:02:02.462Z,57.30
2023-02-02T22:04:32.601Z,57.30
2023-02-02T22:07:00.841Z,57.20
2023-02-02T22:09:36.907Z,57.30
2023-02-02T22:12:16.116Z,57.20
2023-02-02T22:14:45.131Z,57.30
2023-02-02T22:17:24.688Z,57.30
2023-02-02T22:20:01.818Z,57.20
2023-02-02T22:22:35.849Z,57.20
2023-02-02T22:25:17.532Z,56.70
2023-02-02T22:27:58.592Z,57.20
2023-02-02T22:30:25.681Z,57.20
2023-02-02T22:32:53.467Z,57.20
2023-02-02T22:35:20.350Z,57.20
2023-02-02T22:37:46.945Z,57.20
2023-02-02T22:40:14.351Z,57.20
2023-02-02T22:42:41.112Z,57.20
2023-02-02T22:45:08.233Z,57.20
2023-02-02T22:47:34.931Z,57.10
2023-02-02T22:50:01.607Z,57.10
2023-02-02T22:52:28.209Z,57.10
2023-02-02T22:54:54.781Z,57.20
2023-02-02T22:57:21.389Z,57.10
2023-02-02T22:59:47.990Z,57.10
2023-02-02T23:02:14.605Z,57.10
2023-02-02T23:04:41.229Z,57.10
2023-02-02T23:07:08.122Z,57.10
2023-02-02T23:09:35.021Z,57.10
2023-02-02T23:12:01.765Z,57.00
2023-02-02T23:14:28.364Z,57.00
2023-02-02T23:16:54.964Z,57.10
2023-02-02T23:19:21.565Z,57.00
2023-02-02T23:21:48.185Z,57.00
2023-02-02T23:24:14.829Z,57.00
2023-02-02T23:26:41.442Z,57.00
2023-02-02T23:29:08.037Z,57.00
2023-02-02T23:31:34.745Z,57.00
2023-02-02T23:34:01.485Z,57.00
2023-02-02T23:36:28.151Z,56.90
2023-02-02T23:38:54.733Z,57.00
2023-02-02T23:41:21.885Z,56.90
2023-02-02T23:43:50.196Z,56.40
2023-02-02T23:46:17.629Z,56.90
2023-02-02T23:48:44.668Z,56.90
2023-02-02T23:51:11.817Z,56.90
2023-02-02T23:53:38.804Z,56.90
2023-02-02T23:56:05.521Z,56.90
2023-02-02T23:58:32.136Z,56.90
